createdAt,value
2022-08-12T00:01:11.479Z,19.90
2022-08-12T00:03:57.109Z,19.80
2022-08-12T00:06:44.000Z,19.90
2022-08-12T00:09:30.979Z,19.90
2022-08-12T00:12:16.555Z,19.80
2022-08-12T00:15:03.715Z,19.70
2022-08-12T00:17:50.180Z,19.60
2022-08-12T00:20:35.995Z,19.30
2022-08-12T00:23:21.933Z,19.10
2022-08-12T00:26:23.362Z,19.10
2022-08-12T00:29:13.578Z,18.90
2022-08-12T00:32:01.437Z,18.70
2022-08-12T00:34:50.929Z,18.50
2022-08-12T00:37:39.937Z,18.50
2022-08-12T00:40:29.987Z,18.50
2022-08-12T00:42:58.361Z,18.60
2022-08-12T00:45:26.258Z,18.60
2022-08-12T00:47:54.779Z,18.70
2022-08-12T00:50:23.299Z,18.70
2022-08-12T00:52:53.017Z,18.70
2022-08-12T00:55:20.554Z,18.70
2022-08-12T00:57:52.053Z,18.80
2022-08-12T01:00:24.125Z,19.10
2022-08-12T01:02:58.687Z,19.20
2022-08-12T01:05:45.424Z,19.20
2022-08-12T01:08:31.502Z,19.20
2022-08-12T01:11:17.598Z,19.10
2022-08-12T01:13:49.315Z,19.20
2022-08-12T01:16:24.290Z,19.50
2022-08-12T01:18:55.784Z,19.60
2022-08-12T01:21:43.663Z,19.80
2022-08-12T01:24:30.695Z,19.80
2022-08-12T01:27:01.539Z,19.70
2022-08-12T01:29:32.474Z,19.70
2022-08-12T01:32:06.632Z,19.70
2022-08-12T01:34:37.935Z,19.70
2022-08-12T01:37:09.817Z,19.70
2022-08-12T01:40:35.755Z,19.80
2022-08-12T01:43:07.047Z,19.90
2022-08-12T01:45:43.666Z,20.00
2022-08-12T01:48:24.036Z,19.90
2022-08-12T01:51:06.749Z,19.90
2022-08-12T01:54:04.744Z,20.00
2022-08-12T01:56:52.046Z,19.90
2022-08-12T01:59:49.939Z,19.90
2022-08-12T02:02:28.223Z,19.90
2022-08-12T02:06:04.016Z,19.80
2022-08-12T02:09:11.585Z,19.80
2022-08-12T02:12:09.959Z,19.90
2022-08-12T02:14:51.888Z,20.00
2022-08-12T02:17:54.823Z,20.00
2022-08-12T02:20:51.666Z,20.20
2022-08-12T02:23:28.052Z,20.30
2022-08-12T02:26:16.404Z,20.40
2022-08-12T02:28:44.542Z,20.30
2022-08-12T02:31:12.948Z,20.20
2022-08-12T02:33:41.662Z,20.20
2022-08-12T02:36:08.946Z,20.10
2022-08-12T02:38:37.269Z,20.00
2022-08-12T02:41:07.458Z,20.00
2022-08-12T02:43:50.697Z,19.90
2022-08-12T02:46:32.934Z,19.90
2022-08-12T02:49:18.073Z,19.80
2022-08-12T02:51:45.711Z,19.70
2022-08-12T02:54:13.253Z,19.50
2022-08-12T02:56:50.520Z,19.50
2022-08-12T02:59:22.455Z,19.60
2022-08-12T03:01:53.693Z,19.50
2022-08-12T03:04:31.079Z,19.50
2022-08-12T03:07:45.918Z,19.50
2022-08-12T03:10:36.588Z,19.40
2022-08-12T03:13:08.283Z,19.20
2022-08-12T03:15:36.414Z,19.10
2022-08-12T03:18:26.214Z,18.90
2022-08-12T03:21:00.633Z,19.00
2022-08-12T03:23:31.336Z,19.00
2022-08-12T03:26:03.323Z,19.10
2022-08-12T03:28:54.383Z,19.10
2022-08-12T03:31:33.753Z,19.10
2022-08-12T03:34:12.786Z,19.10
2022-08-12T03:36:42.302Z,19.30
2022-08-12T03:39:19.261Z,19.30
2022-08-12T03:42:02.111Z,19.30
2022-08-12T03:44:57.883Z,19.50
2022-08-12T03:47:52.657Z,19.50
2022-08-12T03:50:39.219Z,19.40
2022-08-12T03:53:27.946Z,19.40
2022-08-12T03:56:14.513Z,19.40
2022-08-12T03:59:00.212Z,19.40
2022-08-12T04:01:28.141Z,19.40
2022-08-12T04:03:55.872Z,19.50
2022-08-12T04:06:35.006Z,19.50
2022-08-12T04:09:16.588Z,19.50
2022-08-12T04:12:04.700Z,19.50
2022-08-12T04:14:33.159Z,19.40
2022-08-12T04:17:01.920Z,19.30
2022-08-12T04:19:30.011Z,19.30
2022-08-12T04:22:02.860Z,19.30
2022-08-12T04:24:36.207Z,19.30
2022-08-12T04:27:09.655Z,19.20
2022-08-12T04:30:17.009Z,19.20
2022-08-12T04:32:26.659Z,19.20
2022-08-12T04:34:54.728Z,19.20
2022-08-12T04:37:21.938Z,19.10
2022-08-12T04:39:50.091Z,19.10
2022-08-12T04:42:17.383Z,19.10
2022-08-12T04:44:45.300Z,19.20
2022-08-12T04:47:16.640Z,19.30
2022-08-12T04:49:46.250Z,19.40
2022-08-12T04:52:14.407Z,19.40
2022-08-12T04:54:43.989Z,19.40
2022-08-12T04:57:11.448Z,19.30
2022-08-12T04:59:48.001Z,19.30
2022-08-12T05:02:22.693Z,19.10
2022-08-12T05:05:00.544Z,19.00
2022-08-12T05:07:28.528Z,19.00
2022-08-12T05:10:00.611Z,19.00
2022-08-12T05:12:56.545Z,18.90
2022-08-12T05:15:29.386Z,18.90
2022-08-12T05:18:00.258Z,18.80
2022-08-12T05:20:29.853Z,18.80
2022-08-12T05:23:13.878Z,18.80
2022-08-12T05:25:56.303Z,18.90
2022-08-12T05:28:27.258Z,18.90
2022-08-12T05:30:56.749Z,18.80
2022-08-12T05:33:37.695Z,19.00
2022-08-12T05:36:10.008Z,19.10
2022-08-12T05:38:56.057Z,19.00
2022-08-12T05:41:35.361Z,18.90
2022-08-12T05:44:07.122Z,18.90
2022-08-12T05:46:35.947Z,18.90
2022-08-12T05:49:05.474Z,19.00
2022-08-12T05:51:41.314Z,19.00
2022-08-12T05:54:11.267Z,19.00
2022-08-12T05:56:40.938Z,19.00
2022-08-12T05:59:11.257Z,19.00
2022-08-12T06:02:09.874Z,19.20
2022-08-12T06:04:27.428Z,19.20
2022-08-12T06:06:54.571Z,19.30
2022-08-12T06:09:22.716Z,19.20
2022-08-12T06:12:04.203Z,19.30
2022-08-12T06:14:36.501Z,19.30
2022-08-12T06:17:06.105Z,19.40
2022-08-12T06:20:27.501Z,19.50
2022-08-12T06:22:20.504Z,19.60
2022-08-12T06:24:49.880Z,19.80
2022-08-12T06:27:19.060Z,19.90
2022-08-12T06:30:06.730Z,20.10
2022-08-12T06:32:47.501Z,20.20
2022-08-12T06:35:25.025Z,20.30
2022-08-12T06:38:25.242Z,20.40
2022-08-12T06:41:17.920Z,20.60
2022-08-12T06:44:05.581Z,20.70
2022-08-12T06:46:33.565Z,20.80
2022-08-12T06:49:00.987Z,21.00
2022-08-12T06:51:31.092Z,21.10
2022-08-12T06:54:00.303Z,21.10
2022-08-12T06:56:59.718Z,21.20
2022-08-12T06:59:15.912Z,21.20
2022-08-12T07:01:51.347Z,21.20
2022-08-12T07:04:37.960Z,21.20
2022-08-12T07:07:10.358Z,21.20
2022-08-12T07:10:01.328Z,21.30
2022-08-12T07:12:28.095Z,21.50
2022-08-12T07:15:04.870Z,21.70
2022-08-12T07:17:37.576Z,21.90
2022-08-12T07:20:29.845Z,22.10
2022-08-12T07:23:01.075Z,22.20
2022-08-12T07:25:37.470Z,22.40
2022-08-12T07:28:23.872Z,22.50
2022-08-12T07:30:53.221Z,22.60
2022-08-12T07:33:24.460Z,22.70
2022-08-12T07:35:54.556Z,22.80
2022-08-12T07:38:40.084Z,22.90
2022-08-12T07:41:25.491Z,23.00
2022-08-12T07:44:00.136Z,23.10
2022-08-12T07:46:40.320Z,23.10
2022-08-12T07:49:15.886Z,23.30
2022-08-12T07:51:44.795Z,23.40
2022-08-12T07:54:13.819Z,23.50
2022-08-12T07:56:42.728Z,23.60
2022-08-12T07:59:10.991Z,23.60
2022-08-12T08:01:38.787Z,23.60
2022-08-12T08:04:25.760Z,23.70
2022-08-12T08:06:54.185Z,23.80
2022-08-12T08:09:24.016Z,23.80
2022-08-12T08:12:19.083Z,23.90
2022-08-12T08:14:48.384Z,24.00
2022-08-12T08:17:17.755Z,24.10
2022-08-12T08:20:02.011Z,24.00
2022-08-12T08:22:40.643Z,24.10
2022-08-12T08:25:35.013Z,24.20
2022-08-12T08:27:56.015Z,24.20
2022-08-12T08:30:24.000Z,24.40
2022-08-12T08:32:51.055Z,24.40
2022-08-12T08:35:18.475Z,24.50
2022-08-12T08:37:50.530Z,24.60
2022-08-12T08:40:37.488Z,24.60
2022-08-12T08:43:04.940Z,24.60
2022-08-12T08:45:33.345Z,24.60
2022-08-12T08:48:00.832Z,24.50
2022-08-12T08:50:28.484Z,24.40
2022-08-12T08:52:56.086Z,24.40
2022-08-12T08:55:33.428Z,24.50
2022-08-12T08:58:11.153Z,24.50
2022-08-12T09:00:39.461Z,24.70
2022-08-12T09:04:21.160Z,24.90
2022-08-12T09:06:02.950Z,25.10
2022-08-12T09:08:30.566Z,25.20
2022-08-12T09:14:12.267Z,25.40
2022-08-12T09:16:45.231Z,25.40
2022-08-12T09:19:27.103Z,25.70
2022-08-12T09:21:55.640Z,25.80
2022-08-12T09:24:22.953Z,25.90
2022-08-12T09:26:55.029Z,26.00
2022-08-12T09:30:11.582Z,26.20
2022-08-12T09:32:29.509Z,26.20
2022-08-12T09:34:56.970Z,26.30
2022-08-12T09:37:26.807Z,26.40
2022-08-12T09:40:06.364Z,26.40
2022-08-12T09:43:15.994Z,26.50
2022-08-12T09:46:19.947Z,26.60
2022-08-12T09:48:39.255Z,26.70
2022-08-12T09:51:20.331Z,26.70
2022-08-12T09:54:05.507Z,26.90
2022-08-12T09:57:01.038Z,27.00
2022-08-12T10:00:13.044Z,27.20
2022-08-12T10:02:43.373Z,27.30
2022-08-12T10:05:00.607Z,27.40
2022-08-12T10:07:40.034Z,27.50
2022-08-12T10:10:22.969Z,27.60
2022-08-12T10:13:13.408Z,27.70
2022-08-12T10:16:01.923Z,27.80
2022-08-12T10:18:35.189Z,27.80
2022-08-12T10:21:07.973Z,27.90
2022-08-12T10:23:40.992Z,28.00
2022-08-12T10:26:39.051Z,28.00
2022-08-12T10:30:37.290Z,28.00
2022-08-12T10:32:44.217Z,28.10
2022-08-12T10:35:09.697Z,28.30
2022-08-12T10:38:38.826Z,28.50
2022-08-12T10:40:31.446Z,28.60
2022-08-12T10:43:19.314Z,28.70
2022-08-12T10:45:49.521Z,28.70
2022-08-12T10:48:27.072Z,28.90
2022-08-12T10:51:51.673Z,28.90
2022-08-12T10:54:00.684Z,28.90
2022-08-12T10:56:35.425Z,28.90
2022-08-12T10:59:11.104Z,28.90
2022-08-12T11:04:17.962Z,29.00
2022-08-12T11:04:41.327Z,29.00
2022-08-12T11:08:33.624Z,29.10
2022-08-12T11:10:02.560Z,29.30
2022-08-12T11:12:56.759Z,29.30
2022-08-12T11:15:33.283Z,29.20
2022-08-12T11:18:11.548Z,29.50
2022-08-12T11:20:40.072Z,29.90
2022-08-12T11:23:25.167Z,30.00
2022-08-12T11:26:00.484Z,30.00
2022-08-12T11:28:33.315Z,30.40
2022-08-12T11:31:03.317Z,31.50
2022-08-12T11:34:04.971Z,31.80
2022-08-12T11:36:22.131Z,32.40
2022-08-12T11:38:51.368Z,32.20
2022-08-12T11:41:31.105Z,33.10
2022-08-12T11:44:02.049Z,33.90
2022-08-12T11:46:51.139Z,34.40
2022-08-12T11:49:31.787Z,34.80
2022-08-12T11:52:02.048Z,34.80
2022-08-12T11:54:30.350Z,34.70
2022-08-12T11:57:02.368Z,34.90
2022-08-12T12:02:20.787Z,35.60
2022-08-12T12:04:52.487Z,35.10
2022-08-12T12:07:33.698Z,34.80
2022-08-12T12:10:12.531Z,34.60
2022-08-12T12:12:41.498Z,33.70
2022-08-12T12:15:16.729Z,34.30
2022-08-12T12:17:55.698Z,34.70
2022-08-12T12:20:26.042Z,34.60
2022-08-12T12:22:57.647Z,34.40
2022-08-12T12:26:08.344Z,34.80
2022-08-12T12:28:37.046Z,35.40
2022-08-12T12:31:00.834Z,35.80
2022-08-12T12:33:57.052Z,36.30
2022-08-12T12:36:24.038Z,36.50
2022-08-12T12:38:57.039Z,36.70
2022-08-12T12:42:43.950Z,36.40
2022-08-12T12:44:13.402Z,36.70
2022-08-12T12:46:54.806Z,37.00
2022-08-12T12:49:26.461Z,36.90
2022-08-12T12:52:18.557Z,37.00
2022-08-12T12:54:52.772Z,36.50
2022-08-12T12:57:21.556Z,36.00
2022-08-12T13:00:18.061Z,36.00
2022-08-12T13:02:53.931Z,36.50
2022-08-12T13:05:30.109Z,36.80
2022-08-12T13:08:28.076Z,36.90
2022-08-12T13:11:00.874Z,36.20
2022-08-12T13:14:12.083Z,35.80
2022-08-12T13:16:20.894Z,35.30
2022-08-12T13:18:50.937Z,35.40
2022-08-12T13:21:33.400Z,35.50
2022-08-12T13:24:09.741Z,35.70
2022-08-12T13:26:40.860Z,36.10
2022-08-12T13:29:11.534Z,36.30
2022-08-12T13:31:46.403Z,36.50
2022-08-12T13:34:34.259Z,36.40
2022-08-12T13:37:09.682Z,36.50
2022-08-12T13:39:38.568Z,36.20
2022-08-12T13:42:14.586Z,36.00
2022-08-12T13:44:42.811Z,36.00
2022-08-12T13:47:19.495Z,36.20
2022-08-12T13:49:54.485Z,36.50
2022-08-12T13:52:23.633Z,36.40
2022-08-12T13:54:54.155Z,35.20
2022-08-12T13:57:25.635Z,34.50
2022-08-12T13:59:55.453Z,34.30
2022-08-12T14:02:27.841Z,34.00
2022-08-12T14:04:56.599Z,33.30
2022-08-12T14:07:26.075Z,33.70
2022-08-12T14:10:16.433Z,34.10
2022-08-12T14:12:54.550Z,34.50
2022-08-12T14:15:31.200Z,35.00
2022-08-12T14:18:21.353Z,34.80
2022-08-12T14:21:04.371Z,34.00
2022-08-12T14:24:05.159Z,33.50
2022-08-12T14:26:25.242Z,33.40
2022-08-12T14:28:57.573Z,32.60
2022-08-12T14:31:31.298Z,32.20
2022-08-12T14:33:59.962Z,31.80
2022-08-12T14:36:27.295Z,31.90
2022-08-12T14:38:56.016Z,32.10
2022-08-12T14:41:37.288Z,32.50
2022-08-12T14:44:57.986Z,32.90
2022-08-12T14:47:00.766Z,33.30
2022-08-12T14:50:33.763Z,33.80
2022-08-12T14:53:11.300Z,34.10
2022-08-12T14:58:01.766Z,33.20
2022-08-12T15:00:50.777Z,32.30
2022-08-12T15:03:23.324Z,32.10
2022-08-12T15:06:05.022Z,32.50
2022-08-12T15:08:39.989Z,32.90
2022-08-12T15:11:14.259Z,33.00
2022-08-12T15:13:46.067Z,33.10
2022-08-12T15:16:13.850Z,32.80
2022-08-12T15:18:55.465Z,32.60
2022-08-12T15:21:24.645Z,32.30
2022-08-12T15:23:55.499Z,31.80
2022-08-12T15:26:28.634Z,31.40
2022-08-12T15:28:58.305Z,31.00
2022-08-12T15:31:35.619Z,30.70
2022-08-12T15:34:12.478Z,30.50
2022-08-12T15:36:55.046Z,30.20
2022-08-12T15:39:22.597Z,30.00
2022-08-12T15:41:50.957Z,29.80
2022-08-12T15:44:38.090Z,29.70
2022-08-12T15:47:10.200Z,29.70
2022-08-12T15:49:43.158Z,29.60
2022-08-12T15:52:28.939Z,29.60
2022-08-12T15:54:58.793Z,29.60
2022-08-12T15:57:27.585Z,29.90
2022-08-12T16:00:06.629Z,30.00
2022-08-12T16:02:50.655Z,30.10
2022-08-12T16:06:11.882Z,30.00
2022-08-12T16:08:19.722Z,29.90
2022-08-12T16:10:53.139Z,29.90
2022-08-12T16:13:32.740Z,29.70
2022-08-12T16:16:22.812Z,29.60
2022-08-12T16:18:52.031Z,29.50
2022-08-12T16:21:51.557Z,29.60
2022-08-12T16:24:08.340Z,29.80
2022-08-12T16:26:40.690Z,30.00
2022-08-12T16:29:14.958Z,30.10
2022-08-12T16:31:44.360Z,30.30
2022-08-12T16:34:25.945Z,30.00
2022-08-12T16:37:07.910Z,30.10
2022-08-12T16:39:57.445Z,30.20
2022-08-12T16:42:28.026Z,30.40
2022-08-12T16:45:02.703Z,30.40
2022-08-12T16:47:58.645Z,30.50
2022-08-12T16:50:19.551Z,30.50
2022-08-12T16:52:51.352Z,30.70
2022-08-12T16:55:19.024Z,30.90
2022-08-12T16:57:49.377Z,31.00
2022-08-12T17:00:18.670Z,31.10
2022-08-12T17:02:54.836Z,31.20
2022-08-12T17:05:31.338Z,31.10
2022-08-12T17:08:00.807Z,30.90
2022-08-12T17:10:36.362Z,31.00
2022-08-12T17:13:10.249Z,31.10
2022-08-12T17:15:56.753Z,31.00
2022-08-12T17:18:43.769Z,30.90
2022-08-12T17:21:20.134Z,30.90
2022-08-12T17:24:12.423Z,30.90
2022-08-12T17:26:49.218Z,30.90
2022-08-12T17:29:24.270Z,30.80
2022-08-12T17:32:11.481Z,30.70
2022-08-12T17:34:57.495Z,30.40
2022-08-12T17:37:24.608Z,30.10
2022-08-12T17:40:12.217Z,29.60
2022-08-12T17:42:40.718Z,29.10
2022-08-12T17:45:18.607Z,28.50
2022-08-12T17:48:01.958Z,28.10
2022-08-12T17:50:39.581Z,27.60
2022-08-12T17:53:10.792Z,27.10
2022-08-12T17:55:47.676Z,26.80
2022-08-12T17:58:36.896Z,26.30
2022-08-12T18:01:10.916Z,25.90
2022-08-12T18:04:05.856Z,25.50
2022-08-12T18:06:32.302Z,25.10
2022-08-12T18:09:08.889Z,24.70
2022-08-12T18:12:06.735Z,24.40
2022-08-12T18:14:37.026Z,24.20
2022-08-12T18:17:08.627Z,24.00
2022-08-12T18:20:06.556Z,23.70
2022-08-12T18:22:30.452Z,23.60
2022-08-12T18:26:14.962Z,23.40
2022-08-12T18:28:28.194Z,23.10
2022-08-12T18:31:03.143Z,22.90
2022-08-12T18:33:43.809Z,22.80
2022-08-12T18:36:14.312Z,22.50
2022-08-12T18:38:56.271Z,22.40
2022-08-12T18:41:34.114Z,22.20
2022-08-12T18:44:10.891Z,22.10
2022-08-12T18:46:55.749Z,22.00
2022-08-12T18:49:38.757Z,21.90
2022-08-12T18:52:11.290Z,21.80
2022-08-12T18:54:53.902Z,21.70
2022-08-12T18:57:45.815Z,21.60
2022-08-12T19:00:22.236Z,21.50
2022-08-12T19:02:55.872Z,21.50
2022-08-12T19:05:52.772Z,21.40
2022-08-12T19:08:14.262Z,21.30
2022-08-12T19:10:50.000Z,21.20
2022-08-12T19:13:37.954Z,21.10
2022-08-12T19:16:14.807Z,20.90
2022-08-12T19:18:44.652Z,20.80
2022-08-12T19:21:16.790Z,20.70
2022-08-12T19:24:08.168Z,20.60
2022-08-12T19:26:36.126Z,20.50
2022-08-12T19:29:05.747Z,20.40
2022-08-12T19:31:57.975Z,20.40
2022-08-12T19:38:04.512Z,20.20
2022-08-12T19:40:31.030Z,20.10
2022-08-12T19:43:26.144Z,20.00
2022-08-12T19:46:16.207Z,19.90
2022-08-12T19:49:02.894Z,19.80
2022-08-12T19:51:35.813Z,19.70
2022-08-12T19:54:03.677Z,19.60
2022-08-12T19:56:32.431Z,19.60
2022-08-12T19:59:21.024Z,19.40
2022-08-12T20:02:02.443Z,19.40
2022-08-12T20:04:38.526Z,19.40
2022-08-12T20:07:09.361Z,19.30
2022-08-12T20:09:53.335Z,19.20
2022-08-12T20:12:29.268Z,19.20
2022-08-12T20:15:05.259Z,19.20
2022-08-12T20:17:36.160Z,19.20
2022-08-12T20:20:19.388Z,19.10
2022-08-12T20:22:48.574Z,19.10
2022-08-12T20:25:18.326Z,19.00
2022-08-12T20:28:04.738Z,19.00
2022-08-12T20:30:52.615Z,18.90
2022-08-12T20:33:50.094Z,18.90
2022-08-12T20:36:42.812Z,18.80
2022-08-12T20:39:03.038Z,18.70
2022-08-12T20:41:31.368Z,18.70
2022-08-12T20:43:59.814Z,18.70
2022-08-12T20:46:33.134Z,18.70
2022-08-12T20:49:17.230Z,18.70
2022-08-12T20:51:54.865Z,18.60
2022-08-12T20:54:23.102Z,18.60
2022-08-12T20:57:02.128Z,18.60
2022-08-12T20:59:49.386Z,18.50
2022-08-12T21:02:24.604Z,18.50
2022-08-12T21:06:10.363Z,18.50
2022-08-12T21:08:26.757Z,18.40
2022-08-12T21:10:55.930Z,18.50
2022-08-12T21:13:27.091Z,18.50
2022-08-12T21:16:00.189Z,18.50
2022-08-12T21:18:29.276Z,18.60
2022-08-12T21:20:58.963Z,18.50
2022-08-12T21:23:30.983Z,18.50
2022-08-12T21:26:11.149Z,18.50
2022-08-12T21:28:39.336Z,18.50
2022-08-12T21:32:34.846Z,18.50
2022-08-12T21:34:07.521Z,18.40
2022-08-12T21:36:39.753Z,18.40
2022-08-12T21:39:21.702Z,18.30
2022-08-12T21:41:52.592Z,18.20
2022-08-12T21:45:43.981Z,18.20
2022-08-12T21:47:20.984Z,18.20
2022-08-12T21:50:03.012Z,18.20
2022-08-12T21:52:43.600Z,18.20
2022-08-12T21:55:18.233Z,18.10
2022-08-12T21:57:53.532Z,18.10
2022-08-12T22:00:31.934Z,18.10
2022-08-12T22:04:01.999Z,18.00
2022-08-12T22:06:31.768Z,18.00
2022-08-12T22:09:15.910Z,18.00
2022-08-12T22:11:49.185Z,17.90
2022-08-12T22:14:24.408Z,17.90
2022-08-12T22:16:54.809Z,17.90
2022-08-12T22:19:23.528Z,17.90
2022-08-12T22:21:54.352Z,17.80
2022-08-12T22:24:29.955Z,17.80
2022-08-12T22:27:08.008Z,17.80
2022-08-12T22:30:15.964Z,17.80
2022-08-12T22:32:49.823Z,17.80
2022-08-12T22:35:56.608Z,17.80
2022-08-12T22:38:29.286Z,17.90
2022-08-12T22:41:07.275Z,17.80
2022-08-12T22:43:59.089Z,17.80
2022-08-12T22:46:53.594Z,17.70
2022-08-12T22:49:37.175Z,17.70
2022-08-12T22:52:22.654Z,17.70
2022-08-12T22:55:03.343Z,17.70
2022-08-12T22:57:53.896Z,17.70
2022-08-12T23:00:24.336Z,17.60
2022-08-12T23:02:58.418Z,17.50
2022-08-12T23:05:57.654Z,17.40
2022-08-12T23:08:29.906Z,17.40
2022-08-12T23:11:00.792Z,17.30
2022-08-12T23:13:55.433Z,17.30
2022-08-12T23:16:33.379Z,17.20
2022-08-12T23:19:09.675Z,17.10
2022-08-12T23:22:05.793Z,17.10
2022-08-12T23:24:55.670Z,17.10
2022-08-12T23:27:56.137Z,17.10
2022-08-12T23:30:31.571Z,17.10
2022-08-12T23:33:13.612Z,17.00
2022-08-12T23:36:02.323Z,17.00
2022-08-12T23:38:32.960Z,16.90
2022-08-12T23:41:06.177Z,16.90
2022-08-12T23:43:39.446Z,16.90
2022-08-12T23:46:10.260Z,16.80
2022-08-12T23:48:38.214Z,16.80
2022-08-12T23:51:22.635Z,16.80
2022-08-12T23:54:07.441Z,16.80
2022-08-12T23:56:38.590Z,16.80
2022-08-12T23:59:10.798Z,16.80
